Terminal Aerodrome Forecast
Issued by NWS

Home | Current Version | Previous Version | Graphics & Text | Print | Product List | Glossary On
Versions: 1 2 3 4 5 6 7 8 9 10 11 12 13 14
383
FTUS43 KTOP 200520
TAFFOE
TAF
KFOE 200520Z 2006/2106 17012KT P6SM SCT250 WS020/22051KT
     FM200800 23005KT P6SM SCT250
     FM201500 01014KT P6SM SCT250=

USA.gov is the U.S. government's official web portal to all federal, state and local government web resources and services.